createdAt,value
2019-02-14T00:01:19.604Z,27.60
2019-02-14T00:03:49.708Z,26.13
2019-02-14T00:06:19.319Z,24.60
2019-02-14T00:08:50.027Z,24.37
2019-02-14T00:11:19.946Z,28.73
2019-02-14T00:13:49.983Z,27.80
2019-02-14T00:16:20.313Z,29.03
2019-02-14T00:18:50.256Z,28.53
2019-02-14T00:21:20.078Z,29.70
2019-02-14T00:23:50.313Z,27.50
2019-02-14T00:26:20.453Z,26.57
2019-02-14T00:28:50.428Z,27.67
2019-02-14T00:31:20.708Z,25.57
2019-02-14T00:33:50.846Z,28.00
2019-02-14T00:36:21.263Z,24.20
2019-02-14T00:38:51.151Z,23.77
2019-02-14T00:41:21.697Z,26.57
2019-02-14T00:43:51.331Z,24.60
2019-02-14T00:46:21.087Z,29.07
2019-02-14T00:48:51.321Z,29.83
2019-02-14T00:51:21.577Z,28.63
2019-02-14T00:53:51.313Z,26.63
2019-02-14T00:56:21.783Z,25.47
2019-02-14T00:58:52.342Z,25.07
2019-02-14T01:01:22.306Z,26.00
2019-02-14T01:03:52.185Z,25.07
2019-02-14T01:06:21.795Z,25.63
2019-02-14T01:08:52.845Z,28.97
2019-02-14T01:11:23.154Z,26.17
2019-02-14T01:13:53.585Z,27.20
2019-02-14T01:16:23.510Z,32.37
2019-02-14T01:18:54.554Z,30.47
2019-02-14T01:21:24.444Z,27.63
2019-02-14T01:23:54.624Z,27.60
2019-02-14T01:26:25.006Z,27.37
2019-02-14T01:28:55.594Z,30.27
2019-02-14T01:31:25.588Z,29.03
2019-02-14T01:33:55.493Z,29.80
2019-02-14T01:36:25.826Z,26.03
2019-02-14T01:38:56.067Z,25.93
2019-02-14T01:41:26.224Z,30.00
2019-02-14T01:43:56.155Z,31.40
2019-02-14T01:46:26.481Z,30.83
2019-02-14T01:48:56.657Z,28.97
2019-02-14T01:51:27.378Z,26.97
2019-02-14T01:53:57.665Z,23.83
2019-02-14T01:56:27.365Z,24.03
2019-02-14T01:58:57.358Z,23.97
2019-02-14T02:01:27.193Z,29.70
2019-02-14T02:03:57.862Z,24.73
2019-02-14T02:06:28.506Z,24.97
2019-02-14T02:08:59.419Z,22.70
2019-02-14T02:11:29.531Z,24.33
2019-02-14T02:13:59.913Z,22.47
2019-02-14T02:16:30.225Z,21.70
2019-02-14T02:18:59.817Z,24.57
2019-02-14T02:21:29.610Z,21.90
2019-02-14T02:23:59.299Z,20.93
2019-02-14T02:26:29.343Z,20.80
2019-02-14T02:28:59.708Z,19.17
2019-02-14T02:31:29.541Z,20.97
2019-02-14T02:34:00.928Z,19.57
2019-02-14T02:36:30.942Z,22.27
2019-02-14T02:39:00.815Z,21.17
2019-02-14T02:41:30.834Z,18.63
2019-02-14T02:44:00.876Z,21.53
2019-02-14T02:46:30.843Z,19.53
2019-02-14T02:49:00.680Z,20.27
2019-02-14T02:51:31.010Z,18.33
2019-02-14T02:54:00.940Z,23.90
2019-02-14T02:56:31.023Z,19.33
2019-02-14T02:59:01.110Z,19.30
2019-02-14T03:01:31.578Z,19.20
2019-02-14T03:04:01.451Z,18.80
2019-02-14T03:06:31.565Z,20.37
2019-02-14T03:09:02.297Z,19.10
2019-02-14T03:11:35.188Z,20.87
2019-02-14T03:14:05.131Z,19.47
2019-02-14T03:16:35.161Z,20.03
2019-02-14T03:19:05.191Z,20.40
2019-02-14T03:21:34.811Z,18.63
2019-02-14T03:24:04.943Z,20.07
2019-02-14T03:26:36.538Z,19.03
2019-02-14T03:29:06.455Z,18.60
2019-02-14T03:31:37.886Z,18.43
2019-02-14T03:34:07.972Z,17.13
2019-02-14T03:36:38.123Z,17.50
2019-02-14T03:39:08.352Z,18.70
2019-02-14T03:41:39.326Z,17.97
2019-02-14T03:44:09.230Z,19.53
2019-02-14T03:46:39.801Z,18.47
2019-02-14T03:49:10.430Z,21.37
2019-02-14T03:51:40.920Z,18.17
2019-02-14T03:54:11.783Z,22.33
2019-02-14T03:56:42.131Z,18.27
2019-02-14T03:59:12.206Z,18.13
2019-02-14T04:01:42.386Z,19.23
2019-02-14T04:04:13.491Z,20.07
2019-02-14T04:06:44.071Z,22.83
2019-02-14T04:09:15.332Z,21.43
2019-02-14T04:11:46.012Z,20.77
2019-02-14T04:14:15.954Z,22.60
2019-02-14T04:16:46.223Z,20.47
2019-02-14T04:19:16.323Z,19.70
2019-02-14T04:21:46.274Z,20.02
2019-02-14T04:24:16.724Z,20.05
2019-02-14T04:26:47.297Z,19.10
2019-02-14T04:29:17.842Z,23.20
2019-02-14T04:31:47.934Z,20.77
2019-02-14T04:34:18.113Z,20.50
2019-02-14T04:36:48.453Z,23.37
2019-02-14T04:39:19.814Z,25.62
2019-02-14T04:41:51.035Z,22.60
2019-02-14T04:44:21.875Z,21.43
2019-02-14T04:46:51.575Z,20.27
2019-02-14T04:49:22.250Z,22.67
2019-02-14T04:51:51.813Z,20.37
2019-02-14T04:54:21.529Z,19.60
2019-02-14T04:56:51.155Z,18.53
2019-02-14T04:59:20.842Z,20.40
2019-02-14T05:01:51.167Z,18.37
2019-02-14T05:04:21.609Z,18.57
2019-02-14T05:06:53.046Z,21.13
2019-02-14T05:09:23.856Z,25.70
2019-02-14T05:11:53.873Z,25.77
2019-02-14T05:14:24.146Z,28.87
2019-02-14T05:17:22.453Z,27.60
2019-02-14T05:20:24.687Z,24.47
2019-02-14T05:23:02.347Z,23.87
2019-02-14T05:26:11.639Z,24.83
2019-02-14T05:28:53.846Z,33.13
2019-02-14T05:31:24.911Z,32.60
2019-02-14T05:33:54.929Z,36.17
2019-02-14T05:36:24.675Z,36.67
2019-02-14T05:38:54.914Z,36.80
2019-02-14T05:41:25.289Z,33.20
2019-02-14T05:43:55.517Z,29.03
2019-02-14T05:46:25.916Z,28.17
2019-02-14T05:48:56.055Z,28.17
2019-02-14T05:51:26.088Z,27.50
2019-02-14T05:53:56.128Z,26.23
2019-02-14T05:56:25.929Z,26.93
2019-02-14T05:58:55.766Z,26.03
2019-02-14T06:01:26.588Z,24.43
2019-02-14T06:03:56.901Z,27.03
2019-02-14T06:06:27.542Z,30.00
2019-02-14T06:08:57.562Z,25.53
2019-02-14T06:11:27.912Z,26.77
2019-02-14T06:13:58.646Z,26.50
2019-02-14T06:16:28.565Z,30.43
2019-02-14T06:18:59.321Z,31.63
2019-02-14T06:21:29.319Z,33.27
2019-02-14T06:23:59.961Z,32.03
2019-02-14T06:26:30.403Z,28.50
2019-02-14T06:29:00.203Z,29.37
2019-02-14T06:31:30.685Z,27.70
2019-02-14T06:34:00.892Z,29.67
2019-02-14T06:36:31.332Z,45.03
2019-02-14T06:39:01.744Z,41.23
2019-02-14T06:41:35.072Z,35.50
2019-02-14T06:44:05.030Z,42.23
2019-02-14T06:46:36.286Z,39.25
2019-02-14T06:49:06.864Z,45.87
2019-02-14T06:51:36.641Z,45.23
2019-02-14T06:54:07.077Z,45.73
2019-02-14T06:56:37.789Z,43.87
2019-02-14T06:59:07.850Z,41.73
2019-02-14T07:01:37.963Z,43.13
2019-02-14T07:04:09.677Z,48.10
2019-02-14T07:06:40.367Z,44.30
2019-02-14T07:09:10.172Z,44.23
2019-02-14T07:11:40.532Z,48.07
2019-02-14T07:14:11.525Z,42.87
2019-02-14T07:16:42.951Z,46.07
2019-02-14T07:19:13.214Z,45.87
2019-02-14T07:21:43.278Z,39.40
2019-02-14T07:24:13.382Z,46.23
2019-02-14T07:26:43.772Z,40.17
2019-02-14T07:29:14.196Z,40.13
2019-02-14T07:31:44.541Z,39.87
2019-02-14T07:34:14.549Z,33.90
2019-02-14T07:36:44.988Z,33.50
2019-02-14T07:39:14.757Z,40.43
2019-02-14T07:41:44.928Z,30.13
2019-02-14T07:44:14.729Z,36.37
2019-02-14T07:46:44.898Z,40.43
2019-02-14T07:49:14.911Z,36.98
2019-02-14T07:51:45.031Z,38.30
2019-02-14T07:54:15.228Z,36.17
2019-02-14T07:56:45.443Z,38.23
2019-02-14T07:59:16.102Z,39.47
2019-02-14T08:01:46.744Z,33.43
2019-02-14T08:04:17.112Z,36.70
2019-02-14T08:06:47.460Z,32.13
2019-02-14T08:09:17.462Z,30.87
2019-02-14T08:11:47.291Z,31.00
2019-02-14T08:14:17.183Z,30.70
2019-02-14T08:16:47.357Z,25.77
2019-02-14T08:19:17.417Z,26.23
2019-02-14T08:21:48.309Z,25.00
2019-02-14T08:24:17.909Z,25.87
2019-02-14T08:26:48.258Z,35.45
2019-02-14T08:29:18.505Z,41.33
2019-02-14T08:31:48.554Z,31.90
2019-02-14T08:34:19.035Z,26.67
2019-02-14T08:36:49.450Z,28.77
2019-02-14T08:39:19.771Z,29.20
2019-02-14T08:41:50.336Z,32.90
2019-02-14T08:44:20.215Z,29.87
2019-02-14T08:46:50.467Z,28.30
2019-02-14T08:49:21.109Z,29.80
2019-02-14T08:51:51.272Z,29.10
2019-02-14T08:54:24.630Z,27.27
2019-02-14T08:56:54.873Z,28.10
2019-02-14T08:59:25.306Z,32.10
2019-02-14T09:01:57.506Z,33.47
2019-02-14T09:04:27.228Z,31.93
2019-02-14T09:06:57.095Z,28.53
2019-02-14T09:09:27.056Z,30.90
2019-02-14T09:11:57.121Z,30.70
2019-02-14T09:14:27.183Z,32.67
2019-02-14T09:16:58.037Z,35.03
2019-02-14T09:19:27.863Z,32.83
2019-02-14T09:21:58.138Z,36.93
2019-02-14T09:24:28.720Z,35.13
2019-02-14T09:26:58.811Z,39.50
2019-02-14T09:29:29.087Z,32.13
2019-02-14T09:31:59.306Z,28.33
2019-02-14T09:34:29.579Z,33.30
2019-02-14T09:37:00.023Z,25.27
2019-02-14T09:39:30.003Z,33.43
2019-02-14T09:42:00.694Z,28.23
2019-02-14T09:44:30.783Z,30.83
2019-02-14T09:47:01.782Z,33.70
2019-02-14T09:49:31.987Z,30.67
2019-02-14T09:52:03.946Z,31.40
2019-02-14T09:54:33.465Z,31.13
2019-02-14T09:57:04.133Z,30.73
2019-02-14T09:59:36.290Z,32.77
2019-02-14T10:02:06.875Z,26.93
2019-02-14T10:04:37.045Z,27.13
2019-02-14T10:07:07.394Z,30.13
2019-02-14T10:09:37.313Z,38.83
2019-02-14T10:12:08.341Z,29.43
2019-02-14T10:14:39.370Z,28.20
2019-02-14T10:17:09.644Z,26.83
2019-02-14T10:19:40.051Z,27.83
2019-02-14T10:22:10.047Z,31.93
2019-02-14T10:24:40.072Z,30.33
2019-02-14T10:27:10.614Z,34.63
2019-02-14T10:29:40.678Z,32.05
2019-02-14T10:32:12.421Z,32.47
2019-02-14T10:34:42.460Z,33.20
2019-02-14T10:37:12.495Z,30.63
2019-02-14T10:39:42.396Z,29.50
2019-02-14T10:42:14.311Z,28.60
2019-02-14T10:44:44.494Z,29.30
2019-02-14T10:47:14.744Z,28.47
2019-02-14T10:49:45.339Z,27.23
2019-02-14T10:52:16.001Z,27.47
2019-02-14T10:54:46.079Z,30.90
2019-02-14T10:57:16.086Z,31.35
2019-02-14T10:59:46.167Z,31.53
2019-02-14T11:02:16.240Z,25.43
2019-02-14T11:04:47.129Z,29.60
2019-02-14T11:07:17.894Z,29.23
2019-02-14T11:09:47.849Z,31.17
2019-02-14T11:12:18.640Z,28.38
2019-02-14T11:14:48.581Z,30.33
2019-02-14T11:17:18.691Z,29.73
2019-02-14T11:19:48.760Z,30.48
2019-02-14T11:22:18.774Z,27.87
2019-02-14T11:24:49.265Z,24.40
2019-02-14T11:27:19.026Z,25.90
2019-02-14T11:29:49.182Z,35.80
2019-02-14T11:32:19.597Z,26.83
2019-02-14T11:34:49.097Z,29.83
2019-02-14T11:37:18.974Z,26.47
2019-02-14T11:39:48.676Z,29.43
2019-02-14T11:42:18.814Z,28.37
2019-02-14T11:44:49.249Z,28.27
2019-02-14T11:47:19.108Z,28.97
2019-02-14T11:49:49.408Z,27.47
2019-02-14T11:52:20.047Z,27.00
2019-02-14T11:54:50.581Z,26.90
2019-02-14T11:57:20.613Z,27.57
2019-02-14T11:59:50.207Z,27.97
2019-02-14T12:02:19.941Z,27.27
2019-02-14T12:04:49.708Z,32.80
2019-02-14T12:07:19.567Z,29.20
2019-02-14T12:09:49.732Z,28.67
2019-02-14T12:12:20.824Z,29.37
2019-02-14T12:14:52.410Z,26.00
2019-02-14T12:17:22.793Z,26.50
2019-02-14T12:19:52.594Z,30.73
2019-02-14T12:22:22.295Z,26.83
2019-02-14T12:24:52.442Z,27.90
2019-02-14T12:27:22.143Z,29.07
2019-02-14T12:29:52.182Z,28.77
2019-02-14T12:32:22.114Z,26.00
2019-02-14T12:34:52.028Z,26.17
2019-02-14T12:37:22.382Z,28.10
2019-02-14T12:39:52.774Z,31.80
2019-02-14T12:42:23.010Z,26.13
2019-02-14T12:44:52.531Z,30.40
2019-02-14T12:47:22.599Z,33.03
2019-02-14T12:49:52.694Z,29.57
2019-02-14T12:52:23.363Z,29.47
2019-02-14T12:54:52.951Z,31.93
2019-02-14T12:57:22.805Z,29.63
2019-02-14T12:59:52.799Z,30.43
2019-02-14T13:02:22.654Z,29.73
2019-02-14T13:04:52.664Z,29.10
2019-02-14T13:07:23.154Z,31.60
2019-02-14T13:09:53.472Z,31.77
2019-02-14T13:12:24.296Z,30.68
2019-02-14T13:14:54.706Z,35.83
2019-02-14T13:17:25.192Z,37.30
2019-02-14T13:19:56.885Z,39.60
2019-02-14T13:22:27.516Z,36.30
2019-02-14T13:24:57.459Z,34.17
2019-02-14T13:27:27.613Z,36.57
2019-02-14T13:29:58.079Z,31.10
2019-02-14T13:32:28.436Z,34.10
2019-02-14T13:34:58.725Z,32.43
2019-02-14T13:37:28.839Z,34.03
2019-02-14T13:39:58.827Z,31.27
2019-02-14T13:42:29.134Z,33.13
2019-02-14T13:44:58.854Z,32.63
2019-02-14T13:47:28.847Z,31.23
2019-02-14T13:49:59.065Z,31.87
2019-02-14T13:52:29.418Z,33.30
2019-02-14T13:54:59.846Z,30.62
2019-02-14T13:57:29.535Z,33.87
2019-02-14T13:59:59.474Z,30.67
2019-02-14T14:02:29.609Z,34.70
2019-02-14T14:04:59.586Z,31.77
2019-02-14T14:07:39.925Z,36.00
2019-02-14T14:10:02.132Z,35.77
2019-02-14T14:12:53.169Z,32.33
2019-02-14T14:15:23.062Z,33.60
2019-02-14T14:17:53.367Z,33.87
2019-02-14T14:20:23.563Z,39.23
2019-02-14T14:22:54.413Z,30.00
2019-02-14T14:25:24.825Z,30.30
2019-02-14T14:27:55.233Z,34.77
2019-02-14T14:30:25.786Z,31.50
2019-02-14T14:32:56.215Z,34.43
2019-02-14T14:35:31.984Z,31.80
2019-02-14T14:38:02.303Z,36.13
2019-02-14T14:40:32.515Z,37.07
2019-02-14T14:43:21.840Z,35.90
2019-02-14T14:46:06.996Z,34.65
2019-02-14T14:48:39.021Z,33.77
2019-02-14T14:51:10.605Z,35.77
2019-02-14T14:53:41.149Z,36.90
2019-02-14T14:56:11.688Z,50.17
2019-02-14T14:58:45.508Z,39.07
2019-02-14T15:01:14.924Z,37.20
2019-02-14T15:03:44.703Z,40.60
2019-02-14T15:06:14.235Z,36.47
2019-02-14T15:08:44.208Z,35.80
2019-02-14T15:11:14.142Z,42.33
2019-02-14T15:13:43.891Z,39.97
2019-02-14T15:16:13.539Z,37.50
2019-02-14T15:18:43.204Z,38.40
2019-02-14T15:21:14.376Z,46.27
2019-02-14T15:23:43.592Z,43.13
2019-02-14T15:26:13.272Z,39.13
2019-02-14T15:28:44.032Z,41.20
2019-02-14T15:31:13.882Z,39.27
2019-02-14T15:33:43.573Z,34.73
2019-02-14T15:36:13.522Z,37.30
2019-02-14T15:38:43.078Z,36.87
2019-02-14T15:41:13.158Z,39.63
2019-02-14T15:43:44.024Z,42.30
2019-02-14T15:46:13.737Z,45.90
2019-02-14T15:48:43.786Z,45.17
2019-02-14T15:51:16.218Z,45.40
2019-02-14T15:53:46.413Z,55.53
2019-02-14T15:56:27.658Z,46.07
2019-02-14T16:17:11.833Z,104.13
2019-02-14T16:19:42.917Z,77.80
2019-02-14T16:22:12.866Z,77.83
2019-02-14T16:24:42.999Z,74.50
2019-02-14T16:27:13.594Z,77.60
2019-02-14T16:29:43.296Z,79.43
2019-02-14T16:32:13.178Z,68.70
2019-02-14T16:34:44.571Z,72.40
2019-02-14T16:37:14.679Z,72.90
2019-02-14T16:39:51.583Z,74.97
2019-02-14T16:42:15.455Z,74.27
2019-02-14T16:44:45.404Z,71.57
2019-02-14T16:47:14.852Z,72.47
2019-02-14T16:49:44.684Z,64.17
2019-02-14T16:52:14.697Z,66.37
2019-02-14T16:54:45.253Z,60.27
2019-02-14T16:57:15.562Z,64.43
2019-02-14T16:59:45.357Z,67.50
2019-02-14T17:02:15.055Z,64.47
2019-02-14T17:04:44.893Z,62.50
2019-02-14T17:07:14.705Z,62.50
2019-02-14T17:09:44.263Z,138.60
2019-02-14T17:12:14.579Z,83.00
2019-02-14T17:14:45.459Z,76.70
2019-02-14T17:17:15.054Z,70.33
2019-02-14T17:21:01.310Z,65.90
2019-02-14T17:23:35.177Z,65.27
2019-02-14T17:26:04.856Z,69.47
2019-02-14T17:28:35.117Z,71.37
2019-02-14T17:31:04.809Z,74.17
2019-02-14T17:33:36.932Z,78.60
2019-02-14T17:36:06.893Z,78.17
2019-02-14T17:38:37.954Z,76.83
2019-02-14T17:41:09.347Z,71.53
2019-02-14T17:43:39.715Z,72.00
2019-02-14T17:46:10.250Z,79.93
2019-02-14T17:48:41.468Z,90.20
2019-02-14T17:51:13.542Z,80.73
2019-02-14T17:53:44.026Z,85.37
2019-02-14T17:56:14.517Z,87.50
2019-02-14T17:58:46.043Z,83.10
2019-02-14T18:01:15.963Z,84.33
2019-02-14T18:03:46.636Z,86.40
2019-02-14T18:06:16.772Z,83.87
2019-02-14T18:08:48.585Z,95.83
2019-02-14T18:11:18.947Z,86.75
2019-02-14T18:13:49.537Z,90.43
2019-02-14T18:16:21.914Z,88.27
2019-02-14T18:18:53.358Z,81.47
2019-02-14T18:21:25.327Z,94.97
2019-02-14T18:23:56.795Z,124.77
2019-02-14T18:26:27.825Z,100.70
2019-02-14T18:29:01.691Z,81.47
2019-02-14T18:31:33.526Z,73.23
2019-02-14T18:34:04.766Z,68.13
2019-02-14T18:36:36.103Z,72.10
2019-02-14T18:39:08.448Z,76.63
2019-02-14T18:41:57.779Z,69.23
2019-02-14T18:44:29.365Z,73.17
2019-02-14T18:46:59.909Z,76.90
2019-02-14T18:49:30.496Z,76.77
2019-02-14T18:52:01.096Z,79.97
2019-02-14T18:54:32.197Z,80.13
2019-02-14T18:57:03.618Z,98.57
2019-02-14T18:59:37.999Z,141.17
2019-02-14T19:02:09.205Z,75.27
2019-02-14T19:04:40.151Z,76.77
2019-02-14T19:07:11.366Z,73.93
2019-02-14T19:09:44.368Z,70.80
2019-02-14T19:12:16.611Z,70.23
2019-02-14T19:14:47.974Z,79.30
2019-02-14T19:17:19.014Z,82.00
2019-02-14T19:19:49.579Z,77.97
2019-02-14T19:22:21.235Z,76.77
2019-02-14T19:24:52.445Z,79.67
2019-02-14T19:27:23.583Z,86.10
2019-02-14T19:29:54.844Z,83.23
2019-02-14T19:32:25.915Z,87.13
2019-02-14T19:34:57.183Z,96.03
2019-02-14T19:37:28.410Z,103.87
2019-02-14T19:39:59.553Z,91.43
2019-02-14T19:42:42.102Z,88.90
2019-02-14T19:45:14.477Z,96.83
2019-02-14T19:47:46.321Z,91.90
2019-02-14T19:50:20.036Z,87.83
2019-02-14T19:52:51.193Z,88.13
2019-02-14T19:55:22.104Z,83.73
2019-02-14T19:57:53.571Z,80.87
2019-02-14T20:00:24.940Z,79.53
2019-02-14T20:02:56.003Z,78.97
2019-02-14T20:05:27.252Z,78.73
2019-02-14T20:07:58.082Z,73.27
2019-02-14T20:10:29.083Z,67.30
2019-02-14T20:13:00.900Z,75.90
2019-02-14T20:15:37.159Z,83.90
2019-02-14T20:18:05.272Z,80.67
2019-02-14T20:20:37.046Z,72.80
2019-02-14T20:23:09.148Z,73.87
2019-02-14T20:25:46.137Z,66.10
2019-02-14T20:28:17.481Z,76.77
2019-02-14T20:30:48.613Z,81.87
2019-02-14T20:33:20.124Z,74.93
2019-02-14T20:35:51.778Z,74.80
2019-02-14T20:38:22.799Z,68.57
2019-02-14T20:40:55.005Z,72.20
2019-02-14T20:43:25.889Z,70.37
2019-02-14T20:45:57.236Z,74.17
2019-02-14T20:48:28.708Z,72.13
2019-02-14T20:51:00.072Z,68.63
2019-02-14T20:53:30.287Z,74.80
2019-02-14T20:56:06.038Z,68.43
2019-02-14T20:58:37.505Z,71.63
2019-02-14T21:01:10.302Z,70.73
2019-02-14T21:03:41.452Z,75.40
2019-02-14T21:06:12.888Z,73.80
2019-02-14T21:08:43.911Z,69.60
2019-02-14T21:11:14.596Z,79.10
2019-02-14T21:13:46.436Z,76.97
2019-02-14T21:16:17.713Z,79.77
2019-02-14T21:18:49.737Z,63.87
2019-02-14T21:21:20.945Z,56.10
2019-02-14T21:23:51.175Z,52.40
2019-02-14T21:26:22.325Z,52.03
2019-02-14T21:28:52.935Z,55.77
2019-02-14T21:31:27.777Z,55.17
2019-02-14T21:33:59.047Z,62.17
2019-02-14T21:36:29.640Z,53.77
2019-02-14T21:39:00.267Z,44.83
2019-02-14T21:41:30.623Z,51.90
2019-02-14T21:44:01.153Z,42.90
2019-02-14T21:46:32.564Z,40.63
2019-02-14T21:49:03.104Z,40.37
2019-02-14T21:51:34.101Z,40.80
2019-02-14T21:54:04.290Z,41.30
2019-02-14T21:56:35.120Z,46.93
2019-02-14T21:59:05.287Z,43.67
2019-02-14T22:01:35.766Z,42.53
2019-02-14T22:04:05.818Z,40.33
2019-02-14T22:06:36.323Z,40.90
2019-02-14T22:09:07.108Z,37.70
2019-02-14T22:11:37.455Z,40.07
2019-02-14T22:14:07.378Z,36.60
2019-02-14T22:16:37.350Z,32.67
2019-02-14T22:19:08.226Z,31.30
2019-02-14T22:21:38.532Z,32.17
2019-02-14T22:24:08.746Z,32.60
2019-02-14T22:26:38.738Z,31.60
2019-02-14T22:29:09.321Z,30.30
2019-02-14T22:31:39.298Z,33.67
2019-02-14T22:34:10.320Z,29.53
2019-02-14T22:36:40.310Z,30.60
2019-02-14T22:39:10.587Z,27.47
2019-02-14T22:41:40.791Z,30.57
2019-02-14T22:44:11.595Z,31.57
2019-02-14T22:46:41.978Z,29.87
2019-02-14T22:49:12.590Z,29.50
2019-02-14T22:51:43.008Z,28.10
2019-02-14T22:54:13.608Z,27.83
2019-02-14T22:56:44.435Z,25.77
2019-02-14T22:59:14.976Z,23.57
2019-02-14T23:01:47.581Z,26.10
2019-02-14T23:04:17.753Z,26.90
2019-02-14T23:06:47.812Z,26.27
2019-02-14T23:09:19.373Z,24.00
2019-02-14T23:11:49.416Z,23.47
2019-02-14T23:14:19.389Z,27.00
2019-02-14T23:16:50.229Z,22.60
2019-02-14T23:19:21.217Z,24.57
2019-02-14T23:21:51.666Z,23.03
2019-02-14T23:24:21.584Z,23.00
2019-02-14T23:26:51.989Z,21.57
2019-02-14T23:29:22.234Z,20.33
2019-02-14T23:31:52.423Z,25.53
2019-02-14T23:34:22.304Z,25.27
2019-02-14T23:36:52.498Z,22.33
2019-02-14T23:39:22.367Z,23.23
2019-02-14T23:41:52.857Z,23.63
2019-02-14T23:44:23.041Z,26.30
2019-02-14T23:46:53.651Z,21.07
2019-02-14T23:49:24.212Z,25.90
2019-02-14T23:51:54.669Z,23.03
2019-02-14T23:54:24.925Z,24.90
2019-02-14T23:56:55.083Z,21.30
2019-02-14T23:59:25.542Z,24.03
